sensor_id;sensor_type;location;lat;lon;timestamp;P1;durP1;ratioP1;P2;durP2;ratioP2
72379;SDS011;60354;47.798;12.472;2023-04-03T00:02:11;13.32;;;6.82;;
72379;SDS011;60354;47.798;12.472;2023-04-03T00:04:37;10.85;;;7.15;;
72379;SDS011;60354;47.798;12.472;2023-04-03T00:07:02;9.88;;;6.78;;
72379;SDS011;60354;47.798;12.472;2023-04-03T00:09:28;9.57;;;6.32;;
72379;SDS011;60354;47.798;12.472;2023-04-03T00:11:53;12.57;;;7.00;;
72379;SDS011;60354;47.798;12.472;2023-04-03T00:14:19;10.60;;;6.95;;
72379;SDS011;60354;47.798;12.472;2023-04-03T00:16:44;12.32;;;7.32;;
72379;SDS011;60354;47.798;12.472;2023-04-03T00:19:10;10.60;;;7.30;;
72379;SDS011;60354;47.798;12.472;2023-04-03T00:21:37;10.02;;;6.85;;
72379;SDS011;60354;47.798;12.472;2023-04-03T00:24:03;11.82;;;7.30;;
72379;SDS011;60354;47.798;12.472;2023-04-03T00:26:28;10.77;;;6.90;;
72379;SDS011;60354;47.798;12.472;2023-04-03T00:28:54;13.23;;;7.75;;
72379;SDS011;60354;47.798;12.472;2023-04-03T00:31:19;11.50;;;7.53;;
72379;SDS011;60354;47.798;12.472;2023-04-03T00:33:45;11.88;;;6.88;;
72379;SDS011;60354;47.798;12.472;2023-04-03T00:36:11;11.60;;;6.85;;
72379;SDS011;60354;47.798;12.472;2023-04-03T00:38:37;10.27;;;6.25;;
72379;SDS011;60354;47.798;12.472;2023-04-03T00:41:03;10.57;;;7.13;;
72379;SDS011;60354;47.798;12.472;2023-04-03T00:43:29;12.63;;;7.20;;
72379;SDS011;60354;47.798;12.472;2023-04-03T00:45:55;12.50;;;6.95;;
72379;SDS011;60354;47.798;12.472;2023-04-03T00:51:02;13.45;;;7.40;;
72379;SDS011;60354;47.798;12.472;2023-04-03T00:53:32;14.20;;;7.10;;
72379;SDS011;60354;47.798;12.472;2023-04-03T00:56:02;10.52;;;7.22;;
72379;SDS011;60354;47.798;12.472;2023-04-03T00:59:18;11.10;;;6.93;;
72379;SDS011;60354;47.798;12.472;2023-04-03T01:01:26;11.45;;;7.35;;
72379;SDS011;60354;47.798;12.472;2023-04-03T01:03:53;11.13;;;7.07;;
72379;SDS011;60354;47.798;12.472;2023-04-03T01:06:21;10.32;;;6.78;;
72379;SDS011;60354;47.798;12.472;2023-04-03T01:08:51;12.18;;;7.07;;
72379;SDS011;60354;47.798;12.472;2023-04-03T01:11:18;11.05;;;7.13;;
72379;SDS011;60354;47.798;12.472;2023-04-03T01:13:44;10.43;;;6.97;;
72379;SDS011;60354;47.798;12.472;2023-04-03T01:16:09;10.60;;;6.97;;
72379;SDS011;60354;47.798;12.472;2023-04-03T01:18:36;10.85;;;6.55;;
72379;SDS011;60354;47.798;12.472;2023-04-03T01:26:19;9.80;;;6.65;;
72379;SDS011;60354;47.798;12.472;2023-04-03T01:28:45;8.90;;;6.68;;
72379;SDS011;60354;47.798;12.472;2023-04-03T01:33:49;11.55;;;7.38;;
72379;SDS011;60354;47.798;12.472;2023-04-03T01:36:48;12.10;;;6.80;;
72379;SDS011;60354;47.798;12.472;2023-04-03T01:39:08;12.48;;;6.85;;
72379;SDS011;60354;47.798;12.472;2023-04-03T01:41:33;10.68;;;7.15;;
72379;SDS011;60354;47.798;12.472;2023-04-03T01:44:08;11.63;;;7.25;;
72379;SDS011;60354;47.798;12.472;2023-04-03T01:46:33;11.45;;;7.00;;
72379;SDS011;60354;47.798;12.472;2023-04-03T01:48:59;9.38;;;7.00;;
72379;SDS011;60354;47.798;12.472;2023-04-03T01:51:25;10.57;;;6.85;;
72379;SDS011;60354;47.798;12.472;2023-04-03T01:53:50;10.35;;;6.45;;
72379;SDS011;60354;47.798;12.472;2023-04-03T01:56:16;11.80;;;7.20;;
72379;SDS011;60354;47.798;12.472;2023-04-03T01:58:43;9.75;;;6.50;;
72379;SDS011;60354;47.798;12.472;2023-04-03T02:01:09;10.63;;;7.25;;
72379;SDS011;60354;47.798;12.472;2023-04-03T02:03:35;9.93;;;6.93;;
72379;SDS011;60354;47.798;12.472;2023-04-03T02:06:01;9.52;;;7.30;;
72379;SDS011;60354;47.798;12.472;2023-04-03T02:08:27;12.35;;;6.93;;
72379;SDS011;60354;47.798;12.472;2023-04-03T02:10:52;10.50;;;6.90;;
72379;SDS011;60354;47.798;12.472;2023-04-03T02:13:18;9.77;;;6.93;;
72379;SDS011;60354;47.798;12.472;2023-04-03T02:15:44;10.63;;;7.10;;
72379;SDS011;60354;47.798;12.472;2023-04-03T02:18:10;10.68;;;7.35;;
72379;SDS011;60354;47.798;12.472;2023-04-03T02:20:36;11.95;;;7.40;;
72379;SDS011;60354;47.798;12.472;2023-04-03T02:23:02;12.38;;;7.15;;
72379;SDS011;60354;47.798;12.472;2023-04-03T02:25:27;10.88;;;7.40;;
72379;SDS011;60354;47.798;12.472;2023-04-03T02:27:53;12.20;;;7.70;;
72379;SDS011;60354;47.798;12.472;2023-04-03T02:30:19;9.57;;;7.22;;
72379;SDS011;60354;47.798;12.472;2023-04-03T02:32:44;13.88;;;8.15;;
72379;SDS011;60354;47.798;12.472;2023-04-03T02:35:10;12.85;;;7.53;;
72379;SDS011;60354;47.798;12.472;2023-04-03T02:37:37;11.38;;;7.40;;
72379;SDS011;60354;47.798;12.472;2023-04-03T02:40:03;12.73;;;8.25;;
72379;SDS011;60354;47.798;12.472;2023-04-03T02:42:30;11.88;;;7.90;;
72379;SDS011;60354;47.798;12.472;2023-04-03T02:44:55;11.20;;;7.93;;
72379;SDS011;60354;47.798;12.472;2023-04-03T02:47:21;12.50;;;8.02;;
72379;SDS011;60354;47.798;12.472;2023-04-03T02:49:47;12.30;;;8.20;;
72379;SDS011;60354;47.798;12.472;2023-04-03T02:52:13;12.27;;;8.38;;
72379;SDS011;60354;47.798;12.472;2023-04-03T02:54:39;13.45;;;8.48;;
72379;SDS011;60354;47.798;12.472;2023-04-03T02:57:07;13.88;;;9.18;;
72379;SDS011;60354;47.798;12.472;2023-04-03T02:59:34;13.73;;;9.00;;
72379;SDS011;60354;47.798;12.472;2023-04-03T03:02:06;13.73;;;9.55;;
72379;SDS011;60354;47.798;12.472;2023-04-03T03:04:35;14.60;;;9.20;;
72379;SDS011;60354;47.798;12.472;2023-04-03T03:07:01;13.05;;;8.88;;
72379;SDS011;60354;47.798;12.472;2023-04-03T03:09:27;14.05;;;9.00;;
72379;SDS011;60354;47.798;12.472;2023-04-03T03:11:54;15.05;;;9.52;;
72379;SDS011;60354;47.798;12.472;2023-04-03T03:14:21;14.60;;;9.05;;
72379;SDS011;60354;47.798;12.472;2023-04-03T03:16:46;15.07;;;9.82;;
72379;SDS011;60354;47.798;12.472;2023-04-03T03:19:12;12.52;;;8.60;;
72379;SDS011;60354;47.798;12.472;2023-04-03T03:21:38;13.93;;;8.48;;
72379;SDS011;60354;47.798;12.472;2023-04-03T03:24:03;12.25;;;8.38;;
72379;SDS011;60354;47.798;12.472;2023-04-03T03:26:29;14.90;;;9.15;;
72379;SDS011;60354;47.798;12.472;2023-04-03T03:28:55;16.35;;;9.63;;
72379;SDS011;60354;47.798;12.472;2023-04-03T03:31:21;12.52;;;8.57;;
72379;SDS011;60354;47.798;12.472;2023-04-03T03:33:46;13.27;;;8.65;;
72379;SDS011;60354;47.798;12.472;2023-04-03T03:36:12;11.85;;;7.90;;
72379;SDS011;60354;47.798;12.472;2023-04-03T03:38:37;12.38;;;8.68;;
72379;SDS011;60354;47.798;12.472;2023-04-03T03:41:04;12.95;;;9.30;;
72379;SDS011;60354;47.798;12.472;2023-04-03T03:43:31;13.60;;;8.43;;
72379;SDS011;60354;47.798;12.472;2023-04-03T03:45:57;13.43;;;8.00;;
72379;SDS011;60354;47.798;12.472;2023-04-03T03:48:24;11.77;;;7.80;;
72379;SDS011;60354;47.798;12.472;2023-04-03T03:50:50;12.63;;;8.63;;
72379;SDS011;60354;47.798;12.472;2023-04-03T03:53:18;13.20;;;7.80;;
72379;SDS011;60354;47.798;12.472;2023-04-03T03:55:44;12.20;;;7.80;;
72379;SDS011;60354;47.798;12.472;2023-04-03T03:58:10;9.88;;;6.90;;
72379;SDS011;60354;47.798;12.472;2023-04-03T04:00:36;11.13;;;7.63;;
72379;SDS011;60354;47.798;12.472;2023-04-03T04:03:02;10.57;;;7.35;;
72379;SDS011;60354;47.798;12.472;2023-04-03T04:05:29;9.75;;;6.90;;
72379;SDS011;60354;47.798;12.472;2023-04-03T04:07:57;12.30;;;8.02;;
72379;SDS011;60354;47.798;12.472;2023-04-03T04:10:24;11.80;;;7.40;;
72379;SDS011;60354;47.798;12.472;2023-04-03T04:12:49;10.98;;;7.70;;
72379;SDS011;60354;47.798;12.472;2023-04-03T04:15:18;10.15;;;7.38;;
72379;SDS011;60354;47.798;12.472;2023-04-03T04:17:44;11.07;;;7.13;;
72379;SDS011;60354;47.798;12.472;2023-04-03T04:20:11;9.98;;;7.57;;
72379;SDS011;60354;47.798;12.472;2023-04-03T04:22:38;11.15;;;7.25;;
72379;SDS011;60354;47.798;12.472;2023-04-03T04:25:04;10.40;;;7.32;;
72379;SDS011;60354;47.798;12.472;2023-04-03T04:27:30;11.40;;;7.55;;
72379;SDS011;60354;47.798;12.472;2023-04-03T04:29:56;12.00;;;7.90;;
72379;SDS011;60354;47.798;12.472;2023-04-03T04:32:21;10.90;;;7.43;;
72379;SDS011;60354;47.798;12.472;2023-04-03T04:34:48;8.65;;;6.53;;
72379;SDS011;60354;47.798;12.472;2023-04-03T04:37:13;10.38;;;6.93;;
72379;SDS011;60354;47.798;12.472;2023-04-03T04:39:39;9.93;;;7.20;;
72379;SDS011;60354;47.798;12.472;2023-04-03T04:42:05;10.60;;;6.50;;
72379;SDS011;60354;47.798;12.472;2023-04-03T04:44:32;10.82;;;7.07;;
72379;SDS011;60354;47.798;12.472;2023-04-03T04:46:58;10.15;;;6.88;;
72379;SDS011;60354;47.798;12.472;2023-04-03T04:49:23;9.90;;;7.03;;
72379;SDS011;60354;47.798;12.472;2023-04-03T04:51:50;10.32;;;6.85;;
72379;SDS011;60354;47.798;12.472;2023-04-03T04:54:17;8.88;;;6.63;;
72379;SDS011;60354;47.798;12.472;2023-04-03T04:56:44;11.38;;;6.78;;
72379;SDS011;60354;47.798;12.472;2023-04-03T04:59:10;9.63;;;6.53;;
72379;SDS011;60354;47.798;12.472;2023-04-03T05:01:36;10.85;;;6.68;;
72379;SDS011;60354;47.798;12.472;2023-04-03T05:04:07;9.40;;;6.68;;
72379;SDS011;60354;47.798;12.472;2023-04-03T05:06:33;9.65;;;6.88;;
72379;SDS011;60354;47.798;12.472;2023-04-03T05:09:01;8.48;;;6.45;;
72379;SDS011;60354;47.798;12.472;2023-04-03T05:11:28;11.02;;;7.00;;
72379;SDS011;60354;47.798;12.472;2023-04-03T05:13:54;8.90;;;6.35;;
72379;SDS011;60354;47.798;12.472;2023-04-03T05:16:21;9.20;;;6.30;;
72379;SDS011;60354;47.798;12.472;2023-04-03T05:18:47;10.50;;;6.68;;
72379;SDS011;60354;47.798;12.472;2023-04-03T05:21:17;8.60;;;6.30;;
72379;SDS011;60354;47.798;12.472;2023-04-03T05:23:44;10.15;;;6.75;;
72379;SDS011;60354;47.798;12.472;2023-04-03T05:26:10;10.35;;;6.50;;
72379;SDS011;60354;47.798;12.472;2023-04-03T05:28:36;9.63;;;6.75;;
72379;SDS011;60354;47.798;12.472;2023-04-03T05:31:02;7.72;;;6.10;;
72379;SDS011;60354;47.798;12.472;2023-04-03T05:33:33;8.55;;;5.63;;
72379;SDS011;60354;47.798;12.472;2023-04-03T05:36:03;17.70;;;9.57;;
72379;SDS011;60354;47.798;12.472;2023-04-03T05:38:32;12.18;;;7.60;;
72379;SDS011;60354;47.798;12.472;2023-04-03T05:40:58;13.73;;;7.82;;
72379;SDS011;60354;47.798;12.472;2023-04-03T05:43:24;12.30;;;7.25;;
72379;SDS011;60354;47.798;12.472;2023-04-03T05:45:50;11.60;;;6.72;;
72379;SDS011;60354;47.798;12.472;2023-04-03T05:48:18;8.80;;;6.07;;
72379;SDS011;60354;47.798;12.472;2023-04-03T05:50:44;15.82;;;8.40;;
72379;SDS011;60354;47.798;12.472;2023-04-03T05:53:16;16.80;;;7.93;;
72379;SDS011;60354;47.798;12.472;2023-04-03T05:55:45;11.32;;;6.30;;
72379;SDS011;60354;47.798;12.472;2023-04-03T05:58:11;11.02;;;6.57;;
72379;SDS011;60354;47.798;12.472;2023-04-03T06:00:38;9.20;;;6.15;;
72379;SDS011;60354;47.798;12.472;2023-04-03T06:03:04;9.98;;;6.25;;
72379;SDS011;60354;47.798;12.472;2023-04-03T06:05:30;12.50;;;7.22;;
72379;SDS011;60354;47.798;12.472;2023-04-03T06:07:55;9.05;;;5.80;;
72379;SDS011;60354;47.798;12.472;2023-04-03T06:10:22;11.85;;;7.20;;
72379;SDS011;60354;47.798;12.472;2023-04-03T06:12:48;11.90;;;7.22;;
72379;SDS011;60354;47.798;12.472;2023-04-03T06:15:15;11.57;;;7.00;;
72379;SDS011;60354;47.798;12.472;2023-04-03T06:17:42;15.65;;;8.65;;
72379;SDS011;60354;47.798;12.472;2023-04-03T06:20:08;14.30;;;8.80;;
72379;SDS011;60354;47.798;12.472;2023-04-03T06:22:34;10.18;;;6.72;;
72379;SDS011;60354;47.798;12.472;2023-04-03T06:25:01;9.70;;;6.40;;
72379;SDS011;60354;47.798;12.472;2023-04-03T06:27:27;10.10;;;5.65;;
72379;SDS011;60354;47.798;12.472;2023-04-03T06:29:52;11.45;;;6.68;;
72379;SDS011;60354;47.798;12.472;2023-04-03T06:32:18;13.38;;;7.80;;
72379;SDS011;60354;47.798;12.472;2023-04-03T06:34:43;12.18;;;7.22;;
72379;SDS011;60354;47.798;12.472;2023-04-03T06:37:15;11.73;;;7.13;;
72379;SDS011;60354;47.798;12.472;2023-04-03T06:39:42;10.38;;;7.13;;
72379;SDS011;60354;47.798;12.472;2023-04-03T06:42:08;8.30;;;6.10;;
72379;SDS011;60354;47.798;12.472;2023-04-03T06:44:37;8.50;;;6.05;;
72379;SDS011;60354;47.798;12.472;2023-04-03T06:47:03;9.98;;;5.82;;
72379;SDS011;60354;47.798;12.472;2023-04-03T06:49:28;10.85;;;7.15;;
72379;SDS011;60354;47.798;12.472;2023-04-03T06:51:54;11.05;;;7.47;;
72379;SDS011;60354;47.798;12.472;2023-04-03T06:54:21;9.32;;;6.30;;
72379;SDS011;60354;47.798;12.472;2023-04-03T06:56:46;11.02;;;6.75;;
72379;SDS011;60354;47.798;12.472;2023-04-03T06:59:12;10.50;;;6.88;;
72379;SDS011;60354;47.798;12.472;2023-04-03T07:01:40;11.20;;;6.70;;
72379;SDS011;60354;47.798;12.472;2023-04-03T07:04:07;15.35;;;9.77;;
72379;SDS011;60354;47.798;12.472;2023-04-03T07:06:33;12.48;;;7.30;;
72379;SDS011;60354;47.798;12.472;2023-04-03T07:09:00;9.50;;;6.25;;
72379;SDS011;60354;47.798;12.472;2023-04-03T07:11:26;12.13;;;6.72;;
72379;SDS011;60354;47.798;12.472;2023-04-03T07:13:52;7.65;;;5.50;;
72379;SDS011;60354;47.798;12.472;2023-04-03T07:16:18;8.93;;;5.80;;
72379;SDS011;60354;47.798;12.472;2023-04-03T07:18:44;11.88;;;7.43;;
72379;SDS011;60354;47.798;12.472;2023-04-03T07:21:10;9.88;;;6.70;;
72379;SDS011;60354;47.798;12.472;2023-04-03T07:23:36;8.85;;;5.97;;
72379;SDS011;60354;47.798;12.472;2023-04-03T07:26:02;7.43;;;5.40;;
72379;SDS011;60354;47.798;12.472;2023-04-03T07:28:28;10.50;;;5.55;;
72379;SDS011;60354;47.798;12.472;2023-04-03T07:33:26;8.07;;;4.88;;
72379;SDS011;60354;47.798;12.472;2023-04-03T07:35:52;7.40;;;4.97;;
72379;SDS011;60354;47.798;12.472;2023-04-03T07:38:17;7.32;;;5.05;;
72379;SDS011;60354;47.798;12.472;2023-04-03T07:40:47;7.28;;;4.68;;
72379;SDS011;60354;47.798;12.472;2023-04-03T07:43:14;7.78;;;4.70;;
72379;SDS011;60354;47.798;12.472;2023-04-03T07:45:41;7.68;;;5.15;;
72379;SDS011;60354;47.798;12.472;2023-04-03T07:48:08;7.78;;;5.05;;
72379;SDS011;60354;47.798;12.472;2023-04-03T07:50:35;6.20;;;4.47;;
72379;SDS011;60354;47.798;12.472;2023-04-03T07:53:01;5.97;;;3.97;;
72379;SDS011;60354;47.798;12.472;2023-04-03T07:55:27;7.05;;;4.72;;
72379;SDS011;60354;47.798;12.472;2023-04-03T07:57:53;7.30;;;4.40;;
72379;SDS011;60354;47.798;12.472;2023-04-03T08:00:19;6.78;;;5.10;;
72379;SDS011;60354;47.798;12.472;2023-04-03T08:02:45;7.68;;;4.88;;
72379;SDS011;60354;47.798;12.472;2023-04-03T08:05:17;7.57;;;5.32;;
72379;SDS011;60354;47.798;12.472;2023-04-03T08:07:43;7.80;;;4.32;;
72379;SDS011;60354;47.798;12.472;2023-04-03T08:10:09;7.47;;;4.82;;
72379;SDS011;60354;47.798;12.472;2023-04-03T08:12:35;6.18;;;4.40;;
72379;SDS011;60354;47.798;12.472;2023-04-03T08:15:02;6.68;;;4.68;;
72379;SDS011;60354;47.798;12.472;2023-04-03T08:17:28;5.85;;;4.43;;
72379;SDS011;60354;47.798;12.472;2023-04-03T08:19:54;7.60;;;5.13;;
72379;SDS011;60354;47.798;12.472;2023-04-03T08:22:20;7.55;;;5.13;;
72379;SDS011;60354;47.798;12.472;2023-04-03T08:24:46;8.55;;;5.20;;
72379;SDS011;60354;47.798;12.472;2023-04-03T08:27:11;8.48;;;5.70;;
72379;SDS011;60354;47.798;12.472;2023-04-03T08:29:37;8.38;;;5.00;;
72379;SDS011;60354;47.798;12.472;2023-04-03T08:32:03;8.65;;;5.13;;
72379;SDS011;60354;47.798;12.472;2023-04-03T08:34:30;7.47;;;5.20;;
72379;SDS011;60354;47.798;12.472;2023-04-03T08:36:56;5.93;;;4.05;;
72379;SDS011;60354;47.798;12.472;2023-04-03T08:39:21;7.35;;;4.70;;
72379;SDS011;60354;47.798;12.472;2023-04-03T08:41:47;5.50;;;3.53;;
72379;SDS011;60354;47.798;12.472;2023-04-03T08:50:18;6.78;;;4.65;;
72379;SDS011;60354;47.798;12.472;2023-04-03T08:52:53;4.72;;;3.72;;
72379;SDS011;60354;47.798;12.472;2023-04-03T08:55:27;6.40;;;4.25;;
72379;SDS011;60354;47.798;12.472;2023-04-03T08:57:59;4.82;;;3.40;;
72379;SDS011;60354;47.798;12.472;2023-04-03T09:00:38;7.22;;;4.55;;
72379;SDS011;60354;47.798;12.472;2023-04-03T09:03:11;9.57;;;4.30;;
72379;SDS011;60354;47.798;12.472;2023-04-03T09:05:43;10.48;;;6.15;;
72379;SDS011;60354;47.798;12.472;2023-04-03T09:16:20;5.60;;;3.80;;
72379;SDS011;60354;47.798;12.472;2023-04-03T09:18:54;4.53;;;3.28;;
72379;SDS011;60354;47.798;12.472;2023-04-03T09:21:45;4.45;;;3.10;;
72379;SDS011;60354;47.798;12.472;2023-04-03T09:24:12;6.93;;;3.30;;
72379;SDS011;60354;47.798;12.472;2023-04-03T09:26:42;5.03;;;3.17;;
72379;SDS011;60354;47.798;12.472;2023-04-03T09:29:15;4.68;;;2.85;;
72379;SDS011;60354;47.798;12.472;2023-04-03T09:31:44;4.05;;;2.75;;
72379;SDS011;60354;47.798;12.472;2023-04-03T09:34:15;3.90;;;2.35;;
72379;SDS011;60354;47.798;12.472;2023-04-03T09:39:15;4.13;;;2.40;;
72379;SDS011;60354;47.798;12.472;2023-04-03T09:41:54;4.07;;;2.67;;
72379;SDS011;60354;47.798;12.472;2023-04-03T09:44:23;6.30;;;2.40;;
72379;SDS011;60354;47.798;12.472;2023-04-03T09:46:50;6.55;;;2.88;;
72379;SDS011;60354;47.798;12.472;2023-04-03T09:49:16;3.40;;;2.10;;
72379;SDS011;60354;47.798;12.472;2023-04-03T09:51:43;3.75;;;2.50;;
72379;SDS011;60354;47.798;12.472;2023-04-03T09:57:02;4.13;;;2.28;;
72379;SDS011;60354;47.798;12.472;2023-04-03T09:59:32;3.63;;;2.30;;
72379;SDS011;60354;47.798;12.472;2023-04-03T10:02:21;3.53;;;2.47;;
72379;SDS011;60354;47.798;12.472;2023-04-03T10:04:49;5.25;;;3.70;;
72379;SDS011;60354;47.798;12.472;2023-04-03T10:09:56;3.50;;;2.25;;
72379;SDS011;60354;47.798;12.472;2023-04-03T10:12:22;2.53;;;2.03;;
72379;SDS011;60354;47.798;12.472;2023-04-03T10:14:56;3.03;;;2.00;;
72379;SDS011;60354;47.798;12.472;2023-04-03T10:36:34;3.58;;;2.10;;
72379;SDS011;60354;47.798;12.472;2023-04-03T10:41:56;5.75;;;2.97;;
72379;SDS011;60354;47.798;12.472;2023-04-03T10:47:20;2.55;;;1.90;;
72379;SDS011;60354;47.798;12.472;2023-04-03T10:52:48;3.42;;;2.10;;
72379;SDS011;60354;47.798;12.472;2023-04-03T10:55:41;3.78;;;2.40;;
72379;SDS011;60354;47.798;12.472;2023-04-03T10:58:13;4.32;;;2.55;;
72379;SDS011;60354;47.798;12.472;2023-04-03T11:00:50;4.15;;;2.10;;
72379;SDS011;60354;47.798;12.472;2023-04-03T11:03:29;7.63;;;2.60;;
72379;SDS011;60354;47.798;12.472;2023-04-03T11:06:01;3.92;;;2.42;;
72379;SDS011;60354;47.798;12.472;2023-04-03T11:08:35;3.35;;;2.20;;
72379;SDS011;60354;47.798;12.472;2023-04-03T11:11:20;4.55;;;2.60;;
72379;SDS011;60354;47.798;12.472;2023-04-03T11:16:29;3.65;;;2.60;;
72379;SDS011;60354;47.798;12.472;2023-04-03T11:19:02;3.78;;;2.33;;
72379;SDS011;60354;47.798;12.472;2023-04-03T11:21:37;3.88;;;2.53;;
72379;SDS011;60354;47.798;12.472;2023-04-03T11:24:16;4.53;;;3.00;;
72379;SDS011;60354;47.798;12.472;2023-04-03T11:26:46;4.50;;;2.22;;
72379;SDS011;60354;47.798;12.472;2023-04-03T11:29:15;4.45;;;2.75;;
72379;SDS011;60354;47.798;12.472;2023-04-03T11:34:42;4.95;;;3.55;;
72379;SDS011;60354;47.798;12.472;2023-04-03T11:37:23;4.22;;;3.20;;
72379;SDS011;60354;47.798;12.472;2023-04-03T11:42:41;8.95;;;4.90;;
72379;SDS011;60354;47.798;12.472;2023-04-03T11:47:50;6.63;;;5.13;;
72379;SDS011;60354;47.798;12.472;2023-04-03T11:50:45;8.50;;;4.72;;
72379;SDS011;60354;47.798;12.472;2023-04-03T12:05:53;5.65;;;4.10;;
72379;SDS011;60354;47.798;12.472;2023-04-03T12:13:37;5.55;;;3.58;;
72379;SDS011;60354;47.798;12.472;2023-04-03T12:16:04;4.90;;;3.47;;
72379;SDS011;60354;47.798;12.472;2023-04-03T12:18:53;4.88;;;3.58;;
72379;SDS011;60354;47.798;12.472;2023-04-03T12:24:02;4.65;;;3.70;;
72379;SDS011;60354;47.798;12.472;2023-04-03T12:34:55;6.35;;;3.70;;
72379;SDS011;60354;47.798;12.472;2023-04-03T12:40:06;5.07;;;3.13;;
72379;SDS011;60354;47.798;12.472;2023-04-03T12:45:19;4.57;;;2.92;;
72379;SDS011;60354;47.798;12.472;2023-04-03T12:47:45;5.20;;;2.92;;
72379;SDS011;60354;47.798;12.472;2023-04-03T12:55:26;4.75;;;2.75;;
72379;SDS011;60354;47.798;12.472;2023-04-03T12:57:52;3.35;;;2.60;;
72379;SDS011;60354;47.798;12.472;2023-04-03T13:00:18;4.85;;;2.63;;
72379;SDS011;60354;47.798;12.472;2023-04-03T13:02:53;4.13;;;2.72;;
72379;SDS011;60354;47.798;12.472;2023-04-03T13:05:19;3.75;;;2.63;;
72379;SDS011;60354;47.798;12.472;2023-04-03T13:07:50;4.18;;;2.80;;
72379;SDS011;60354;47.798;12.472;2023-04-03T13:10:22;4.38;;;2.90;;
72379;SDS011;60354;47.798;12.472;2023-04-03T13:12:52;4.47;;;2.83;;
72379;SDS011;60354;47.798;12.472;2023-04-03T13:17:47;6.35;;;4.05;;
72379;SDS011;60354;47.798;12.472;2023-04-03T13:20:28;5.30;;;3.90;;
72379;SDS011;60354;47.798;12.472;2023-04-03T13:23:04;6.50;;;4.28;;
72379;SDS011;60354;47.798;12.472;2023-04-03T13:25:33;8.18;;;3.90;;
72379;SDS011;60354;47.798;12.472;2023-04-03T13:28:02;7.10;;;4.68;;
72379;SDS011;60354;47.798;12.472;2023-04-03T13:30:35;6.45;;;4.53;;
72379;SDS011;60354;47.798;12.472;2023-04-03T13:33:03;5.63;;;4.00;;
72379;SDS011;60354;47.798;12.472;2023-04-03T13:35:40;6.35;;;4.22;;
72379;SDS011;60354;47.798;12.472;2023-04-03T13:38:29;6.00;;;4.50;;
72379;SDS011;60354;47.798;12.472;2023-04-03T13:40:57;7.35;;;4.47;;
72379;SDS011;60354;47.798;12.472;2023-04-03T13:43:29;6.03;;;4.10;;
72379;SDS011;60354;47.798;12.472;2023-04-03T13:51:03;7.22;;;5.15;;
72379;SDS011;60354;47.798;12.472;2023-04-03T13:53:33;9.35;;;4.80;;
72379;SDS011;60354;47.798;12.472;2023-04-03T13:56:07;5.32;;;3.90;;
72379;SDS011;60354;47.798;12.472;2023-04-03T13:58:51;7.50;;;4.10;;
72379;SDS011;60354;47.798;12.472;2023-04-03T14:01:34;6.90;;;4.60;;
72379;SDS011;60354;47.798;12.472;2023-04-03T14:04:13;9.45;;;6.50;;
72379;SDS011;60354;47.798;12.472;2023-04-03T14:06:38;7.32;;;4.68;;
72379;SDS011;60354;47.798;12.472;2023-04-03T14:09:04;9.60;;;6.07;;
72379;SDS011;60354;47.798;12.472;2023-04-03T14:11:30;8.52;;;4.55;;
72379;SDS011;60354;47.798;12.472;2023-04-03T14:14:00;10.48;;;6.38;;
72379;SDS011;60354;47.798;12.472;2023-04-03T14:16:31;10.27;;;6.55;;
72379;SDS011;60354;47.798;12.472;2023-04-03T14:18:57;9.60;;;5.35;;
72379;SDS011;60354;47.798;12.472;2023-04-03T14:21:23;7.50;;;5.20;;
72379;SDS011;60354;47.798;12.472;2023-04-03T14:23:49;6.05;;;4.35;;
72379;SDS011;60354;47.798;12.472;2023-04-03T14:26:19;8.43;;;4.97;;
72379;SDS011;60354;47.798;12.472;2023-04-03T14:28:48;10.55;;;7.07;;
72379;SDS011;60354;47.798;12.472;2023-04-03T14:31:15;14.13;;;6.88;;
72379;SDS011;60354;47.798;12.472;2023-04-03T14:33:43;11.25;;;6.15;;
72379;SDS011;60354;47.798;12.472;2023-04-03T14:38:43;10.48;;;6.13;;
72379;SDS011;60354;47.798;12.472;2023-04-03T14:41:13;8.85;;;5.57;;
72379;SDS011;60354;47.798;12.472;2023-04-03T14:43:41;9.70;;;5.20;;
72379;SDS011;60354;47.798;12.472;2023-04-03T14:46:18;8.02;;;4.95;;
72379;SDS011;60354;47.798;12.472;2023-04-03T14:48:46;8.68;;;4.53;;
72379;SDS011;60354;47.798;12.472;2023-04-03T14:51:12;6.50;;;4.40;;
72379;SDS011;60354;47.798;12.472;2023-04-03T14:53:39;7.95;;;4.47;;
72379;SDS011;60354;47.798;12.472;2023-04-03T14:56:12;6.93;;;4.15;;
72379;SDS011;60354;47.798;12.472;2023-04-03T14:58:43;7.85;;;4.55;;
72379;SDS011;60354;47.798;12.472;2023-04-03T15:01:09;5.68;;;3.90;;
72379;SDS011;60354;47.798;12.472;2023-04-03T15:03:37;7.28;;;3.88;;
72379;SDS011;60354;47.798;12.472;2023-04-03T15:06:02;5.93;;;3.42;;
72379;SDS011;60354;47.798;12.472;2023-04-03T15:08:28;5.15;;;3.33;;
72379;SDS011;60354;47.798;12.472;2023-04-03T15:10:55;4.35;;;3.05;;
72379;SDS011;60354;47.798;12.472;2023-04-03T15:13:21;4.25;;;3.00;;
72379;SDS011;60354;47.798;12.472;2023-04-03T15:15:48;5.68;;;3.20;;
72379;SDS011;60354;47.798;12.472;2023-04-03T15:18:24;5.40;;;3.38;;
72379;SDS011;60354;47.798;12.472;2023-04-03T15:20:51;3.63;;;2.80;;
72379;SDS011;60354;47.798;12.472;2023-04-03T15:23:18;4.75;;;2.78;;
72379;SDS011;60354;47.798;12.472;2023-04-03T15:25:47;5.63;;;3.00;;
72379;SDS011;60354;47.798;12.472;2023-04-03T15:28:22;4.32;;;2.88;;
72379;SDS011;60354;47.798;12.472;2023-04-03T15:30:52;4.72;;;2.92;;
72379;SDS011;60354;47.798;12.472;2023-04-03T15:33:18;5.80;;;3.00;;
72379;SDS011;60354;47.798;12.472;2023-04-03T15:35:44;5.15;;;3.00;;
72379;SDS011;60354;47.798;12.472;2023-04-03T15:38:09;4.30;;;3.33;;
72379;SDS011;60354;47.798;12.472;2023-04-03T15:40:35;7.53;;;4.05;;
72379;SDS011;60354;47.798;12.472;2023-04-03T15:43:01;9.30;;;4.80;;
72379;SDS011;60354;47.798;12.472;2023-04-03T15:45:28;8.48;;;4.38;;
72379;SDS011;60354;47.798;12.472;2023-04-03T15:47:55;9.30;;;5.50;;
72379;SDS011;60354;47.798;12.472;2023-04-03T15:50:20;7.20;;;3.92;;
72379;SDS011;60354;47.798;12.472;2023-04-03T15:52:48;4.43;;;3.00;;
72379;SDS011;60354;47.798;12.472;2023-04-03T15:55:19;4.95;;;3.50;;
72379;SDS011;60354;47.798;12.472;2023-04-03T15:57:47;6.93;;;3.55;;
72379;SDS011;60354;47.798;12.472;2023-04-03T16:00:13;4.65;;;3.15;;
72379;SDS011;60354;47.798;12.472;2023-04-03T16:02:39;7.07;;;3.45;;
72379;SDS011;60354;47.798;12.472;2023-04-03T16:05:05;6.78;;;3.35;;
72379;SDS011;60354;47.798;12.472;2023-04-03T16:07:31;4.68;;;3.13;;
72379;SDS011;60354;47.798;12.472;2023-04-03T16:09:57;5.47;;;3.38;;
72379;SDS011;60354;47.798;12.472;2023-04-03T16:12:22;6.65;;;4.32;;
72379;SDS011;60354;47.798;12.472;2023-04-03T16:14:48;9.25;;;5.95;;
72379;SDS011;60354;47.798;12.472;2023-04-03T16:17:13;8.57;;;5.97;;
72379;SDS011;60354;47.798;12.472;2023-04-03T16:19:39;11.48;;;6.35;;
72379;SDS011;60354;47.798;12.472;2023-04-03T16:22:04;8.80;;;5.07;;
72379;SDS011;60354;47.798;12.472;2023-04-03T16:24:30;9.38;;;4.32;;
72379;SDS011;60354;47.798;12.472;2023-04-03T16:26:57;9.55;;;3.90;;
72379;SDS011;60354;47.798;12.472;2023-04-03T16:29:23;11.18;;;5.85;;
72379;SDS011;60354;47.798;12.472;2023-04-03T16:31:48;9.90;;;5.07;;
72379;SDS011;60354;47.798;12.472;2023-04-03T16:34:14;7.38;;;4.25;;
72379;SDS011;60354;47.798;12.472;2023-04-03T16:36:41;6.75;;;3.55;;
72379;SDS011;60354;47.798;12.472;2023-04-03T16:39:06;6.25;;;3.80;;